Time;durP1;ratioP1;P1;durP2;ratioP2;P2;SDS_P1;SDS_P2;PMS_P1;PMS_P2;Temp;Humidity;BMP_temperature;BMP_pressure;BME280_temperature;BME280_humidity;BME280_pressure;Samples;Min_cycle;Max_cycle;Signal;HPM_P1;HPM_P2
2022/07/10 00:00:11;;;;;;;1999.90;999.90;;;;;;;18.46;55.27;100067.75;8290166;28;20113;-77
2022/07/10 00:04:12;;;;;;;1999.90;999.90;;;;;;;18.45;55.38;100072.16;8292100;28;20064;-77
2022/07/10 00:08:13;;;;;;;1999.90;999.90;;;;;;;18.28;55.22;100075.22;8314519;28;20351;-78
2022/07/10 00:12:15;;;;;;;1999.90;999.90;;;;;;;18.14;55.50;100072.09;8289167;28;20539;-77
2022/07/10 00:16:17;;;;;;;1999.90;999.90;;;;;;;18.05;56.30;100077.53;8300040;28;20485;-77
2022/07/10 00:20:18;;;;;;;1999.90;999.90;;;;;;;17.91;56.89;100074.38;8292367;28;20103;-77
2022/07/10 00:24:20;;;;;;;1999.90;999.90;;;;;;;17.72;56.89;100072.16;8274079;28;20049;-77
2022/07/10 00:28:23;;;;;;;1999.90;999.90;;;;;;;17.72;56.50;100076.56;8300822;28;20033;-77
2022/07/10 00:32:25;;;;;;;1999.90;999.90;;;;;;;17.63;57.27;100069.72;8287557;28;20330;-77
2022/07/10 00:36:26;;;;;;;1999.90;999.90;;;;;;;17.50;57.85;100071.75;8285418;28;20137;-77
2022/07/10 00:40:28;;;;;;;1999.90;999.90;;;;;;;17.38;58.26;100076.41;8306697;28;20048;-77
2022/07/10 00:44:29;;;;;;;1999.90;999.90;;;;;;;17.28;58.41;100075.75;8285351;28;20049;-78
2022/07/10 00:48:31;;;;;;;1999.90;999.90;;;;;;;17.24;58.63;100075.84;8291435;28;20080;-77
2022/07/10 00:52:38;;;;;;;1999.90;999.90;;;;;;;17.06;59.81;100070.06;8287651;28;20140;-77
2022/07/10 00:56:41;;;;;;;1999.90;999.90;;;;;;;16.95;60.13;100073.78;8302275;28;20053;-77
2022/07/10 01:00:43;;;;;;;1999.90;999.90;;;;;;;16.97;60.04;100072.00;8282020;28;20152;-77
2022/07/10 01:04:45;;;;;;;1999.90;999.90;;;;;;;16.90;60.38;100079.13;8291351;28;20064;-77
2022/07/10 01:08:46;;;;;;;1999.90;999.90;;;;;;;16.85;60.18;100073.94;8306567;28;20093;-77
2022/07/10 01:12:48;;;;;;;1999.90;999.90;;;;;;;16.82;60.57;100070.53;8282528;28;20049;-77
2022/07/10 01:16:50;;;;;;;1999.90;999.90;;;;;;;16.85;60.56;100080.94;8301284;28;20049;-77
2022/07/10 01:20:56;;;;;;;1999.90;999.90;;;;;;;16.80;60.77;100073.19;8298411;28;20699;-77
2022/07/10 01:24:57;;;;;;;1999.90;999.90;;;;;;;16.79;60.69;100079.31;8283310;28;20148;-77
2022/07/10 01:29:03;;;;;;;1999.90;999.90;;;;;;;16.65;61.41;100077.81;8281418;28;20033;-77
2022/07/10 01:33:05;;;;;;;1999.90;999.90;;;;;;;16.52;61.79;100077.19;8305253;28;20050;-77
2022/07/10 01:37:07;;;;;;;1999.90;999.90;;;;;;;16.32;62.29;100080.97;8285799;28;20415;-78
2022/07/10 01:41:08;;;;;;;1999.90;999.90;;;;;;;16.14;63.31;100078.66;8289530;28;20036;-77
2022/07/10 01:45:10;;;;;;;1999.90;999.90;;;;;;;15.99;63.99;100085.03;8285746;28;20048;-77
2022/07/10 01:49:12;;;;;;;1999.90;999.90;;;;;;;15.97;64.51;100085.91;8298718;28;20144;-77
2022/07/10 01:53:14;;;;;;;1999.90;999.90;;;;;;;15.86;65.02;100095.72;8297499;28;20041;-77
2022/07/10 01:57:15;;;;;;;1999.90;999.90;;;;;;;15.78;65.12;100103.66;8317546;28;20114;-77
2022/07/10 02:01:17;;;;;;;1999.90;999.90;;;;;;;15.72;65.40;100106.38;8302057;28;20053;-77
2022/07/10 02:05:19;;;;;;;1999.90;999.90;;;;;;;15.78;64.82;100103.66;8306270;28;20056;-77
2022/07/10 02:09:20;;;;;;;1999.90;999.90;;;;;;;15.88;64.43;100105.25;8307812;28;20720;-77
2022/07/10 02:13:24;;;;;;;1999.90;999.90;;;;;;;15.82;64.85;100105.38;8302331;28;20097;-77
2022/07/10 02:17:26;;;;;;;1999.90;999.90;;;;;;;15.72;64.93;100103.75;8298731;28;20141;-77
2022/07/10 02:21:27;;;;;;;1999.90;999.90;;;;;;;15.71;64.99;100102.88;8301771;28;20121;-78
2022/07/10 02:25:29;;;;;;;1999.90;999.90;;;;;;;15.68;65.36;100100.31;8324038;28;20121;-77
2022/07/10 02:29:30;;;;;;;1999.90;999.90;;;;;;;15.54;65.65;100093.50;8305481;28;20323;-77
2022/07/10 02:33:31;;;;;;;1999.90;999.90;;;;;;;15.43;66.42;100094.50;8286140;28;20084;-77
2022/07/10 02:37:33;;;;;;;1999.90;999.90;;;;;;;15.34;66.60;100094.63;8306790;28;20069;-78
2022/07/10 02:41:37;;;;;;;1999.90;999.90;;;;;;;15.23;67.23;100087.78;8307329;28;20046;-77
2022/07/10 02:45:39;;;;;;;1999.90;999.90;;;;;;;15.11;67.82;100087.06;8283453;28;20378;-77
2022/07/10 02:49:47;;;;;;;1999.90;999.90;;;;;;;15.08;67.69;100089.72;8289856;28;20417;-77
2022/07/10 02:53:48;;;;;;;1999.90;999.90;;;;;;;15.07;67.75;100094.94;8296588;28;20092;-78
2022/07/10 02:57:49;;;;;;;1999.90;999.90;;;;;;;15.02;67.78;100100.22;8284938;28;20037;-77
2022/07/10 03:01:51;;;;;;;1999.90;999.90;;;;;;;14.98;68.23;100097.66;8307871;28;20671;-77
2022/07/10 03:05:52;;;;;;;1999.90;999.90;;;;;;;14.94;68.24;100095.97;8315637;28;20385;-77
2022/07/10 03:09:54;;;;;;;1999.90;999.90;;;;;;;14.93;67.97;100089.88;8301596;28;20501;-77
2022/07/10 03:13:55;;;;;;;1999.90;999.90;;;;;;;14.94;67.46;100096.84;8301197;28;20446;-78
2022/07/10 03:17:57;;;;;;;1999.90;999.90;;;;;;;14.94;67.61;100107.31;8313226;28;20080;-77
2022/07/10 03:21:59;;;;;;;1999.90;999.90;;;;;;;14.86;68.35;100106.50;8280948;28;20044;-77
2022/07/10 03:26:01;;;;;;;;;;;;;;;14.87;67.17;100105.63;8313282;28;20134;-78
2022/07/10 03:30:03;;;;;;;1999.90;999.90;;;;;;;14.89;67.11;100109.06;8296855;28;19936;-78
2022/07/10 03:34:05;;;;;;;1999.90;999.90;;;;;;;14.90;66.69;100105.59;8321357;28;20832;-78
2022/07/10 03:38:07;;;;;;;1999.90;999.90;;;;;;;14.93;66.55;100100.34;8277496;28;20561;-77
2022/07/10 03:42:08;;;;;;;1999.90;999.90;;;;;;;14.93;66.50;100092.50;8297115;28;20128;-78
2022/07/10 03:46:10;;;;;;;1999.90;999.90;;;;;;;14.94;66.10;100094.22;8273518;28;20064;-78
2022/07/10 03:50:11;;;;;;;1999.90;999.90;;;;;;;14.96;66.03;100105.53;8310275;28;20041;-77
2022/07/10 03:54:13;;;;;;;1999.90;999.90;;;;;;;14.95;66.07;100101.19;8314696;28;20084;-77
2022/07/10 03:58:14;;;;;;;1999.90;999.90;;;;;;;14.94;66.43;100096.84;8302090;28;20061;-78
2022/07/10 04:02:16;;;;;;;1999.90;999.90;;;;;;;14.94;66.20;100083.75;8310290;28;20053;-78
2022/07/10 04:06:18;;;;;;;1999.90;999.90;;;;;;;14.88;66.98;100093.41;8313025;28;20096;-77
2022/07/10 04:10:20;;;;;;;1999.90;999.90;;;;;;;14.68;67.40;100101.44;8296477;28;20042;-77
2022/07/10 04:14:22;;;;;;;1999.90;999.90;;;;;;;14.62;67.65;100107.63;8301965;28;20056;-77
2022/07/10 04:18:23;;;;;;;1999.90;999.90;;;;;;;14.69;67.89;100108.41;8309301;28;20543;-77
2022/07/10 04:22:26;;;;;;;1999.90;999.90;;;;;;;14.70;68.25;100108.41;8295994;28;20075;-77
2022/07/10 04:26:28;;;;;;;1999.90;999.90;;;;;;;14.72;68.22;100104.06;8283759;28;20084;-77
2022/07/10 04:30:29;;;;;;;1999.90;999.90;;;;;;;14.69;68.34;100113.63;8295231;28;20041;-78
2022/07/10 04:34:31;;;;;;;1999.90;999.90;;;;;;;14.76;68.27;100112.72;8283278;28;20049;-77
2022/07/10 04:38:32;;;;;;;1999.90;999.90;;;;;;;14.87;68.18;100125.66;8310164;28;20415;-77
2022/07/10 04:42:34;;;;;;;1999.90;999.90;;;;;;;14.93;67.30;100121.25;8301983;28;20136;-77
2022/07/10 04:46:35;;;;;;;1999.90;999.90;;;;;;;15.08;66.86;100125.44;8295868;28;20080;-78
2022/07/10 04:50:37;;;;;;;1999.90;999.90;;;;;;;15.20;66.20;100124.44;8293296;28;20049;-77
2022/07/10 04:54:38;;;;;;;1999.90;999.90;;;;;;;15.30;65.60;100126.09;8286904;28;20406;-78
2022/07/10 04:58:40;;;;;;;1999.90;999.90;;;;;;;15.40;65.42;100136.41;8278838;28;20107;-77
2022/07/10 05:02:43;;;;;;;1999.90;999.90;;;;;;;15.49;65.40;100148.53;8313027;28;20056;-79
2022/07/10 05:06:44;;;;;;;1999.90;999.90;;;;;;;15.54;64.70;100153.69;8322023;28;20050;-78
2022/07/10 05:10:46;;;;;;;1999.90;999.90;;;;;;;15.49;64.53;100147.66;8293105;28;20068;-78
2022/07/10 05:14:47;;;;;;;1999.90;999.90;;;;;;;15.58;63.83;100156.25;8285289;28;20048;-78
2022/07/10 05:18:49;;;;;;;1999.90;999.90;;;;;;;15.77;63.43;100145.56;8292249;28;20041;-77
2022/07/10 05:22:50;;;;;;;1999.90;999.90;;;;;;;15.96;62.87;100154.91;8298626;28;21044;-77
2022/07/10 05:26:52;;;;;;;1999.90;999.90;;;;;;;16.10;62.30;100155.59;8313829;28;20392;-77
2022/07/10 05:30:54;;;;;;;1999.90;999.90;;;;;;;16.26;61.36;100156.22;8278971;28;20049;-77
2022/07/10 05:34:58;;;;;;;1999.90;999.90;;;;;;;16.43;60.40;100164.69;8313430;28;20667;-77
2022/07/10 05:38:59;;;;;;;1999.90;999.90;;;;;;;16.66;59.61;100166.06;8294057;28;20061;-77
2022/07/10 05:43:01;;;;;;;1999.90;999.90;;;;;;;16.81;57.58;100164.09;8312620;28;20069;-77
2022/07/10 05:47:02;;;;;;;1999.90;999.90;;;;;;;17.13;56.68;100166.13;8276769;28;20045;-77
2022/07/10 05:51:04;;;;;;;1999.90;999.90;;;;;;;17.46;54.58;100172.50;8292485;28;20103;-77
2022/07/10 05:55:26;;;;;;;1999.90;999.90;;;;;;;17.89;51.34;100174.25;8288964;28;20136;-77
2022/07/10 05:59:27;;;;;;;1999.90;999.90;;;;;;;18.33;49.68;100180.28;8292805;28;20354;-77
2022/07/10 06:03:29;;;;;;;1999.90;999.90;;;;;;;18.80;47.63;100184.41;8309818;28;20805;-77
2022/07/10 06:07:30;;;;;;;1999.90;999.90;;;;;;;19.22;46.34;100178.94;8313558;28;20045;-77
2022/07/10 06:11:31;;;;;;;1999.90;999.90;;;;;;;19.49;44.79;100180.81;8314027;28;20046;-76
2022/07/10 06:15:33;;;;;;;1999.90;999.90;;;;;;;19.73;44.06;100184.53;8309875;28;20076;-77
2022/07/10 06:19:34;;;;;;;1999.90;999.90;;;;;;;20.09;43.40;100182.56;8289052;28;20048;-77
2022/07/10 06:23:36;;;;;;;1999.90;999.90;;;;;;;20.48;42.49;100185.78;8291310;28;20129;-77
2022/07/10 06:27:37;;;;;;;1999.90;999.90;;;;;;;20.97;41.48;100193.84;8317021;28;20167;-77
2022/07/10 06:31:39;;;;;;;1999.90;999.90;;;;;;;21.00;40.51;100191.09;8276019;28;20056;-77
2022/07/10 06:35:40;;;;;;;1999.90;999.90;;;;;;;20.48;40.99;100187.56;8265043;28;20054;-77
2022/07/10 06:39:42;;;;;;;1999.90;999.90;;;;;;;21.05;40.08;100191.81;8261572;28;20104;-77
2022/07/10 06:43:43;;;;;;;1999.90;999.90;;;;;;;21.27;38.94;100184.88;8241546;28;20462;-77
2022/07/10 06:47:58;;;;;;;1999.90;999.90;;;;;;;21.46;38.70;100177.16;8247888;28;20053;-77
2022/07/10 06:52:00;;;;;;;1999.90;999.90;;;;;;;21.59;39.30;100178.44;8255195;28;20101;-77
2022/07/10 06:56:13;;;;;;;1999.90;999.90;;;;;;;21.47;39.07;100176.25;8239019;28;20113;-77
2022/07/10 07:00:18;;;;;;;1999.90;999.90;;;;;;;21.58;39.29;100179.38;8240807;28;20049;-78
2022/07/10 07:04:19;;;;;;;1999.90;999.90;;;;;;;21.72;37.70;100184.13;8239263;28;20078;-76
2022/07/10 07:08:20;;;;;;;1999.90;999.90;;;;;;;21.86;37.40;100180.97;8258035;28;20074;-77
2022/07/10 07:12:22;;;;;;;1999.90;999.90;;;;;;;22.04;37.26;100177.59;8254274;28;20582;-77
2022/07/10 07:16:37;;;;;;;1999.90;999.90;;;;;;;22.18;36.92;100177.09;8253477;28;20077;-77
2022/07/10 07:24:59;;;;;;;1999.90;999.90;;;;;;;22.19;36.70;100182.34;8252129;28;20062;-77
2022/07/10 07:29:00;;;;;;;1999.90;999.90;;;;;;;22.24;36.44;100169.78;8252694;28;20046;-77
2022/07/10 07:33:02;;;;;;;1999.90;999.90;;;;;;;22.23;36.71;100183.94;8250228;28;20065;-78
2022/07/10 07:37:04;;;;;;;1999.90;999.90;;;;;;;22.27;36.08;100180.25;8312720;28;20931;-77
2022/07/10 07:41:05;;;;;;;1999.90;999.90;;;;;;;22.46;36.27;100182.16;8317407;28;20140;-78
2022/07/10 07:45:08;;;;;;;;;;;;;;;22.47;34.91;100175.97;8295089;28;20117;-78
2022/07/10 07:49:09;;;;;;;1999.90;999.90;;;;;;;22.36;35.21;100180.81;8296256;28;19931;-78
2022/07/10 07:53:11;;;;;;;1999.90;999.90;;;;;;;22.31;35.31;100202.16;8302576;28;20849;-77
2022/07/10 07:57:13;;;;;;;1999.90;999.90;;;;;;;22.37;36.17;100191.31;8310594;28;20053;-78
2022/07/10 08:01:15;;;;;;;;;;;;;;;22.54;36.48;100190.66;8301519;28;20064;-78
2022/07/10 08:05:17;;;;;;;1999.90;999.90;;;;;;;22.68;35.91;100185.66;8299922;28;19935;-77
2022/07/10 08:09:18;;;;;;;;;;;;;;;22.86;36.06;100176.13;8283687;28;20446;-79
2022/07/10 08:13:20;;;;;;;1999.90;999.90;;;;;;;22.98;35.54;100180.00;8295450;28;19921;-77
2022/07/10 08:17:21;;;;;;;1999.90;999.90;;;;;;;23.12;35.85;100181.16;8272898;28;20053;-78
2022/07/10 08:21:23;;;;;;;1999.90;999.90;;;;;;;23.32;34.33;100182.06;8299286;28;20149;-78
2022/07/10 08:25:25;;;;;;;1999.90;999.90;;;;;;;23.30;33.93;100162.72;8288896;28;20630;-77
2022/07/10 08:29:26;;;;;;;1999.90;999.90;;;;;;;23.39;33.91;100173.78;8290016;28;20375;-78
2022/07/10 08:33:28;;;;;;;1999.90;999.90;;;;;;;23.35;33.48;100172.22;8274214;28;20057;-77
2022/07/10 08:37:29;;;;;;;1999.90;999.90;;;;;;;23.36;33.79;100167.78;8288004;28;20045;-75
2022/07/10 08:41:33;;;;;;;1999.90;999.90;;;;;;;23.51;33.73;100172.34;8305184;28;20116;-74
2022/07/10 08:45:34;;;;;;;1999.90;999.90;;;;;;;23.57;33.51;100172.13;8288133;28;20050;-74
2022/07/10 08:49:36;;;;;;;1999.90;999.90;;;;;;;23.70;34.27;100146.78;8288398;28;20336;-76
2022/07/10 08:53:38;;;;;;;;;;;;;;;23.90;34.58;100155.59;8283069;28;20050;-77
2022/07/10 08:57:42;;;;;;;;;;;;;;;24.03;33.01;100154.06;8287031;28;19976;-76
2022/07/10 09:01:44;;;;;;;1999.90;999.90;;;;;;;24.01;33.05;100156.78;8298682;28;20688;-75
2022/07/10 09:05:46;;;;;;;1999.90;999.90;;;;;;;24.09;32.48;100145.84;8306372;28;20046;-76
2022/07/10 09:09:56;;;;;;;1999.90;999.90;;;;;;;24.04;32.38;100147.81;8308443;28;20335;-76
2022/07/10 09:14:04;;;;;;;1999.90;999.90;;;;;;;23.98;32.72;100140.16;8302890;28;20045;-76
2022/07/10 09:18:07;;;;;;;1999.90;999.90;;;;;;;24.03;32.38;100140.81;8300901;28;20052;-76
2022/07/10 09:22:10;;;;;;;1999.90;999.90;;;;;;;24.03;33.62;100130.19;8288300;28;20041;-76
2022/07/10 09:26:12;;;;;;;1999.90;999.90;;;;;;;24.12;33.34;100127.09;8286373;28;20045;-76
2022/07/10 09:30:31;;;;;;;1999.90;999.90;;;;;;;24.16;32.15;100133.97;8296667;28;20694;-76
2022/07/10 09:34:41;;;;;;;1999.90;999.90;;;;;;;24.14;32.88;100137.66;8295374;28;20136;-76
2022/07/10 09:38:43;;;;;;;1999.90;999.90;;;;;;;24.16;33.09;100133.97;8295107;28;20080;-76
2022/07/10 09:42:44;;;;;;;1999.90;999.90;;;;;;;24.41;32.91;100121.25;8298251;28;20045;-77
2022/07/10 09:46:46;;;;;;;1999.90;999.90;;;;;;;24.53;32.74;100121.59;8276718;28;20053;-76
2022/07/10 09:50:48;;;;;;;1999.90;999.90;;;;;;;24.43;32.90;100109.72;8279527;28;20498;-76
2022/07/10 09:54:50;;;;;;;;;;;;;;;24.37;32.07;100116.16;8263385;28;20211;-76
2022/07/10 09:58:55;;;;;;;1999.90;999.90;;;;;;;24.34;32.83;100119.84;8276991;28;20435;-76
2022/07/10 10:03:02;;;;;;;1999.90;999.90;;;;;;;24.43;32.20;100123.00;8275466;28;20289;-76
2022/07/10 10:07:10;;;;;;;1999.90;999.90;;;;;;;24.32;32.11;100115.56;8281192;28;20502;-76
2022/07/10 10:11:20;;;;;;;1999.90;999.90;;;;;;;24.39;32.81;100115.16;8290437;28;20601;-76
2022/07/10 10:15:22;;;;;;;1999.90;999.90;;;;;;;24.52;31.71;100120.72;8283163;28;20088;-76
2022/07/10 10:23:44;;;;;;;1999.90;999.90;;;;;;;24.75;31.22;100111.59;8285497;28;20076;-76
2022/07/10 10:27:46;;;;;;;1999.90;999.90;;;;;;;24.67;31.06;100097.84;8278584;28;20052;-76
2022/07/10 10:31:49;;;;;;;1999.90;999.90;;;;;;;24.59;30.89;100094.72;8296593;28;20049;-76
2022/07/10 10:35:51;;;;;;;1999.90;999.90;;;;;;;24.56;31.95;100090.41;8286187;28;20058;-77
2022/07/10 10:39:56;;;;;;;1999.90;999.90;;;;;;;24.48;31.27;100089.09;8276508;28;20076;-78
2022/07/10 10:44:24;;;;;;;1999.90;999.90;;;;;;;24.66;31.95;100082.84;8302609;28;20811;-78
2022/07/10 10:48:26;;;;;;;1999.90;999.90;;;;;;;24.69;31.75;100083.56;8293814;28;20093;-77
2022/07/10 10:52:59;;;;;;;1999.90;999.90;;;;;;;24.61;31.84;100084.91;8307757;28;20041;-78
2022/07/10 10:57:15;;;;;;;1999.90;999.90;;;;;;;24.87;32.73;100080.88;8275270;28;20045;-78
2022/07/10 11:01:28;;;;;;;1999.90;999.90;;;;;;;25.12;31.90;100076.00;8300008;28;20097;-77
2022/07/10 11:05:29;;;;;;;1999.90;999.90;;;;;;;25.23;31.03;100083.41;8308969;28;20367;-77
2022/07/10 11:09:34;;;;;;;1999.90;999.90;;;;;;;25.15;31.81;100081.19;8311357;28;20152;-78
2022/07/10 11:13:36;;;;;;;1999.90;999.90;;;;;;;25.39;31.79;100078.13;8287112;28;20042;-77
2022/07/10 11:17:39;;;;;;;1999.90;999.90;;;;;;;25.35;31.80;100071.28;8303893;28;20509;-78
2022/07/10 11:21:47;;;;;;;1999.90;999.90;;;;;;;25.49;30.60;100063.38;8284523;28;20104;-78
2022/07/10 11:26:01;;;;;;;1999.90;999.90;;;;;;;25.66;30.52;100055.31;8266086;28;20132;-78
2022/07/10 11:30:03;;;;;;;1999.90;999.90;;;;;;;25.78;32.03;100051.16;8299725;28;20138;-78
2022/07/10 11:34:04;;;;;;;;;;;;;;;25.99;30.88;100044.59;8310418;28;20063;-78
2022/07/10 11:38:06;;;;;;;1999.90;999.90;;;;;;;26.16;30.64;100051.63;8286893;28;20410;-77
2022/07/10 11:42:07;;;;;;;1999.90;999.90;;;;;;;26.11;30.69;100046.56;8307469;28;20084;-77
2022/07/10 11:46:10;;;;;;;;;;;;;;;26.05;30.34;100040.75;8272059;28;20068;-77
2022/07/10 11:50:11;;;;;;;1999.90;999.90;;;;;;;25.93;30.43;100042.31;8310458;28;19950;-77
2022/07/10 11:54:18;;;;;;;1999.90;999.90;;;;;;;25.98;30.48;100032.25;8273477;28;20045;-78
2022/07/10 11:58:20;;;;;;;1999.90;999.90;;;;;;;25.81;29.77;100029.69;8293043;28;20041;-77
2022/07/10 12:02:22;;;;;;;1999.90;999.90;;;;;;;25.77;30.49;100029.00;8264910;28;20077;-78
2022/07/10 12:06:26;;;;;;;1999.90;999.90;;;;;;;25.84;31.45;100041.00;8315050;28;20049;-78
2022/07/10 12:10:29;;;;;;;1999.90;999.90;;;;;;;25.80;31.33;100033.31;8287977;28;20037;-78
2022/07/10 12:14:31;;;;;;;1999.90;999.90;;;;;;;25.98;31.15;100026.06;8308079;28;20650;-79
2022/07/10 12:18:34;;;;;;;1999.90;999.90;;;;;;;26.13;31.04;100018.06;8291350;28;20061;-78
2022/07/10 12:22:36;;;;;;;1999.90;999.90;;;;;;;26.13;30.40;100026.03;8292327;28;20128;-78
2022/07/10 12:26:39;;;;;;;1999.90;999.90;;;;;;;26.30;31.27;100022.38;8305496;28;20137;-78
2022/07/10 12:30:46;;;;;;;1999.90;999.90;;;;;;;26.11;30.46;100019.94;8300487;28;20675;-78
2022/07/10 12:34:50;;;;;;;1999.90;999.90;;;;;;;26.19;30.46;100015.00;8291104;28;20041;-78
2022/07/10 12:38:57;;;;;;;1999.90;999.90;;;;;;;26.20;31.44;100011.41;8286343;28;20076;-78
2022/07/10 12:43:06;;;;;;;1999.90;999.90;;;;;;;26.44;31.13;100002.97;8301131;28;20412;-78
2022/07/10 12:47:13;;;;;;;1999.90;999.90;;;;;;;26.55;30.60;100020.94;8282260;28;20108;-77
2022/07/10 12:51:23;;;;;;;1999.90;999.90;;;;;;;26.24;30.00;100013.91;8303748;28;20433;-78
2022/07/10 12:55:37;;;;;;;1999.90;999.90;;;;;;;26.02;30.83;100011.63;8289748;28;20660;-78
2022/07/10 12:59:38;;;;;;;1999.90;999.90;;;;;;;26.23;31.28;100009.53;8284519;28;20121;-78
2022/07/10 13:03:40;;;;;;;1999.90;999.90;;;;;;;26.52;30.97;99998.00;8275310;28;20056;-78
2022/07/10 13:07:42;;;;;;;1999.90;999.90;;;;;;;26.34;30.44;100007.94;8301626;28;20041;-78
2022/07/10 13:11:44;;;;;;;1999.90;999.90;;;;;;;25.96;30.95;100004.88;8305901;28;20404;-78
2022/07/10 13:15:49;;;;;;;1999.90;999.90;;;;;;;25.81;32.13;99997.75;8289352;28;20124;-78
2022/07/10 13:19:51;;;;;;;1999.90;999.90;;;;;;;25.91;31.73;100004.28;8285165;28;20041;-78
2022/07/10 13:23:52;;;;;;;1999.90;999.90;;;;;;;26.15;31.59;100009.97;8274873;28;20136;-78
2022/07/10 13:27:54;;;;;;;1999.90;999.90;;;;;;;26.36;31.36;100005.22;8302580;28;20041;-78
2022/07/10 13:31:55;;;;;;;;;;;;;;;26.39;31.12;100015.69;8302099;28;20718;-78
2022/07/10 13:35:59;;;;;;;1999.90;999.90;;;;;;;26.31;31.17;100008.13;8266947;28;19936;-78
2022/07/10 13:40:01;;;;;;;1999.90;999.90;;;;;;;26.47;31.15;99998.31;8300334;28;20042;-79
2022/07/10 13:44:02;;;;;;;;;;;;;;;26.45;31.48;100010.84;8281554;28;20053;-78
2022/07/10 13:48:04;;;;;;;1999.90;999.90;;;;;;;26.55;31.61;100005.81;8297863;28;20011;-77
2022/07/10 13:52:06;;;;;;;1999.90;999.90;;;;;;;26.39;31.43;100000.59;8278505;28;20049;-77
2022/07/10 13:56:08;;;;;;;1999.90;999.90;;;;;;;26.31;31.45;100000.13;8277211;28;20064;-78
2022/07/10 14:00:16;;;;;;;1999.90;999.90;;;;;;;26.35;30.84;99999.03;8297115;28;20849;-77
2022/07/10 14:04:18;;;;;;;1999.90;999.90;;;;;;;26.40;31.32;100007.63;8285392;28;20136;-77
2022/07/10 14:08:20;;;;;;;1999.90;999.90;;;;;;;26.47;30.98;100006.28;8287248;28;20037;-77
2022/07/10 14:12:21;;;;;;;1999.90;999.90;;;;;;;26.37;31.57;99994.47;8281245;28;20054;-78
2022/07/10 14:16:23;;;;;;;1999.90;999.90;;;;;;;26.22;31.21;99989.19;8282424;28;20057;-78
2022/07/10 14:20:24;;;;;;;1999.90;999.90;;;;;;;26.41;31.95;99995.16;8299641;28;20419;-78
2022/07/10 14:24:26;;;;;;;1999.90;999.90;;;;;;;26.42;31.68;99995.06;8295588;28;20069;-78
2022/07/10 14:28:28;;;;;;;1999.90;999.90;;;;;;;26.50;30.98;99986.59;8298499;28;20140;-78
2022/07/10 14:32:29;;;;;;;1999.90;999.90;;;;;;;26.09;31.24;99995.22;8287527;28;20046;-78
2022/07/10 14:36:32;;;;;;;;;;;;;;;26.15;31.74;100002.84;8283762;28;20049;-77
2022/07/10 14:40:33;;;;;;;;;;;;;;;26.12;32.49;99973.75;8295959;28;19928;-77
2022/07/10 14:44:35;;;;;;;1999.90;999.90;;;;;;;26.34;32.58;99980.44;8297564;28;19925;-77
2022/07/10 14:48:37;;;;;;;1999.90;999.90;;;;;;;26.34;31.95;99981.31;8279128;28;20056;-77
2022/07/10 14:52:39;;;;;;;1999.90;999.90;;;;;;;26.45;31.84;99989.56;8285592;28;20046;-76
2022/07/10 14:56:40;;;;;;;1999.90;999.90;;;;;;;26.52;32.05;99975.84;8286665;28;20509;-77
2022/07/10 15:00:42;;;;;;;1999.90;999.90;;;;;;;26.61;31.86;99976.16;8288527;28;20042;-77
2022/07/10 15:04:43;;;;;;;1999.90;999.90;;;;;;;26.75;32.33;99973.50;8308067;28;20049;-76
2022/07/10 15:08:45;;;;;;;1999.90;999.90;;;;;;;26.32;31.65;99980.53;8300221;28;20073;-76
2022/07/10 15:12:47;;;;;;;1999.90;999.90;;;;;;;26.55;32.15;99987.16;8295527;28;20041;-77
2022/07/10 15:16:48;;;;;;;1999.90;999.90;;;;;;;26.64;31.88;99972.44;8294850;28;20037;-76
2022/07/10 15:20:49;;;;;;;1999.90;999.90;;;;;;;26.62;31.75;99969.88;8306138;28;20128;-77
2022/07/10 15:24:51;;;;;;;1999.90;999.90;;;;;;;26.69;31.52;99981.88;8308714;28;20084;-76
2022/07/10 15:28:54;;;;;;;;;;;;;;;26.68;31.59;99980.16;8271999;28;20502;-77
2022/07/10 15:32:56;;;;;;;1999.90;999.90;;;;;;;26.65;31.30;99960.84;8304882;28;20294;-76
2022/07/10 15:36:58;;;;;;;;;;;;;;;26.62;31.00;99961.88;8247463;28;20094;-77
2022/07/10 15:41:00;;;;;;;1999.90;999.90;;;;;;;26.38;32.02;99956.22;8244320;28;19929;-77
2022/07/10 15:45:01;;;;;;;1999.90;999.90;;;;;;;26.56;32.11;99966.72;8252566;28;20047;-77
2022/07/10 15:49:04;;;;;;;1999.90;999.90;;;;;;;26.71;32.50;99965.78;8252521;28;20070;-77
2022/07/10 15:53:05;;;;;;;1999.90;999.90;;;;;;;26.79;32.03;99966.19;8245441;28;20046;-77
2022/07/10 15:57:08;;;;;;;1999.90;999.90;;;;;;;26.84;32.02;99957.88;8240022;28;20109;-75
2022/07/10 16:01:10;;;;;;;1999.90;999.90;;;;;;;26.87;32.06;99950.56;8247418;28;20042;-76
2022/07/10 16:05:12;;;;;;;1999.90;999.90;;;;;;;26.97;31.64;99959.69;8229673;28;20045;-76
2022/07/10 16:09:14;;;;;;;1999.90;999.90;;;;;;;27.01;31.70;99968.38;8251524;28;20149;-76
2022/07/10 16:13:17;;;;;;;1999.90;999.90;;;;;;;26.95;31.88;99969.59;8245705;28;20073;-76
2022/07/10 16:17:18;;;;;;;1999.90;999.90;;;;;;;26.98;33.00;99966.75;8247415;28;20062;-76
2022/07/10 16:21:20;;;;;;;1999.90;999.90;;;;;;;27.08;31.33;99967.03;8249381;28;20042;-76
2022/07/10 16:29:42;;;;;;;1999.90;999.90;;;;;;;27.12;31.52;99970.38;8236493;28;20042;-76
2022/07/10 16:33:45;;;;;;;1999.90;999.90;;;;;;;27.06;31.39;99972.47;8249288;28;20077;-77
2022/07/10 16:37:47;;;;;;;1999.90;999.90;;;;;;;26.86;31.95;99977.31;8268942;28;20467;-76
2022/07/10 16:41:48;;;;;;;;;;;;;;;26.39;32.33;99973.94;8290765;28;20083;-76
2022/07/10 16:45:49;;;;;;;1999.90;999.90;;;;;;;25.93;33.19;99980.25;8301962;28;19967;-77
2022/07/10 16:49:52;;;;;;;;;;;;;;;25.50;33.64;99972.91;8284155;28;20129;-77
2022/07/10 16:53:54;;;;;;;;;;;;;;;25.11;34.42;99975.09;8284725;28;19929;-77
2022/07/10 16:58:15;;;;;;;1999.90;999.90;;;;;;;24.85;34.50;99969.38;8275208;28;19925;-77
2022/07/10 17:02:17;;;;;;;1999.90;999.90;;;;;;;24.62;35.02;99965.31;8302492;28;20042;-76
2022/07/10 17:06:21;;;;;;;1999.90;999.90;;;;;;;24.52;35.58;99972.03;8269202;28;20060;-77
2022/07/10 17:10:22;;;;;;;1999.90;999.90;;;;;;;24.33;35.97;99976.56;8302217;28;20506;-77
2022/07/10 17:14:24;;;;;;;1999.90;999.90;;;;;;;24.15;36.41;99975.69;8291626;28;20986;-77
2022/07/10 17:18:27;;;;;;;1999.90;999.90;;;;;;;24.05;36.63;99971.78;8293725;28;20045;-76
2022/07/10 17:22:29;;;;;;;1999.90;999.90;;;;;;;23.94;36.80;99980.28;8276720;28;20041;-77
2022/07/10 17:26:30;;;;;;;1999.90;999.90;;;;;;;23.88;36.41;99985.91;8294319;28;20044;-77
2022/07/10 17:30:33;;;;;;;1999.90;999.90;;;;;;;23.76;36.81;99978.53;8277268;28;20044;-77
2022/07/10 17:34:34;;;;;;;1999.90;999.90;;;;;;;23.69;37.57;99974.47;8293474;28;20061;-77
2022/07/10 17:38:36;;;;;;;1999.90;999.90;;;;;;;23.64;37.98;99969.38;8293591;28;20057;-77
2022/07/10 17:42:40;;;;;;;1999.90;999.90;;;;;;;23.55;37.32;99977.78;8294734;28;20753;-78
2022/07/10 17:46:42;;;;;;;1999.90;999.90;;;;;;;23.43;38.28;99978.34;8277154;28;20092;-77
2022/07/10 17:50:43;;;;;;;1999.90;999.90;;;;;;;23.38;38.48;99973.28;8292273;28;20493;-77
2022/07/10 17:54:45;;;;;;;1999.90;999.90;;;;;;;23.29;38.25;99978.13;8293052;28;20053;-77
2022/07/10 17:58:47;;;;;;;1999.90;999.90;;;;;;;23.19;38.61;99968.00;8277254;28;20068;-77
2022/07/10 18:02:49;;;;;;;1999.90;999.90;;;;;;;23.06;38.91;99982.72;8311017;28;20059;-76
2022/07/10 18:06:50;;;;;;;1999.90;999.90;;;;;;;22.94;39.12;99983.28;8309423;28;20128;-76
2022/07/10 18:10:52;;;;;;;1999.90;999.90;;;;;;;22.83;39.40;99981.13;8290650;28;20347;-77